Time,TemperatureF,DewpointF,PressureIn,WindDirection,WindDirectionDegrees,WindSpeedMPH,WindSpeedGustMPH,Humidity,HourlyPrecipIn,Conditions,Clouds,dailyrainin,SoftwareType,DateUTC
2013-05-17 00:03:00,60.6,42.4,29.75,NNE,22,1.1,-999.0,51,-99.99,,,0.00,Acu-Link.com,2013-05-17 04:03:00,
2013-05-17 00:19:00,59.4,41.3,29.76,ESE,112,1.7,-999.0,51,-99.99,,,0.00,Acu-Link.com,2013-05-17 04:19:00,
2013-05-17 00:34:00,57.9,41.4,29.76,NNE,22,2.2,-999.0,54,-99.99,,,0.00,Acu-Link.com,2013-05-17 04:34:00,
2013-05-17 00:49:00,56.7,41.6,29.76,ENE,67,0.0,-999.0,57,-99.99,,,0.00,Acu-Link.com,2013-05-17 04:49:00,
2013-05-17 01:04:00,55.4,41.7,29.76,SE,135,0.0,-999.0,60,-99.99,,,0.00,Acu-Link.com,2013-05-17 05:04:00,
2013-05-17 01:19:00,54.3,41.6,29.77,ENE,67,0.0,-999.0,62,-99.99,,,0.00,Acu-Link.com,2013-05-17 05:19:00,
2013-05-17 01:34:00,53.2,42.1,29.76,ESE,112,0.0,-999.0,66,-99.99,,,0.00,Acu-Link.com,2013-05-17 05:34:00,
2013-05-17 01:49:00,52.2,42.0,29.77,NNE,22,0.0,-999.0,68,-99.99,,,0.00,Acu-Link.com,2013-05-17 05:49:00,
2013-05-17 02:04:00,51.6,41.8,29.78,ESE,112,0.0,-999.0,69,-99.99,,,0.00,Acu-Link.com,2013-05-17 06:04:00,
2013-05-17 02:19:00,50.5,40.7,29.78,ESE,112,0.0,-999.0,69,-99.99,,,0.00,Acu-Link.com,2013-05-17 06:19:00,
2013-05-17 02:35:00,50.0,39.9,29.79,West,270,0.0,-999.0,68,-99.99,,,0.00,Acu-Link.com,2013-05-17 06:35:00,
2013-05-17 02:50:00,49.3,39.9,29.80,WNW,292,0.0,-999.0,70,-99.99,,,0.00,Acu-Link.com,2013-05-17 06:50:00,
2013-05-17 03:05:00,48.7,38.6,29.81,ENE,67,0.0,-999.0,68,-99.99,,,0.00,Acu-Link.com,2013-05-17 07:05:00,
2013-05-17 03:20:00,48.2,38.9,29.81,ESE,112,0.0,-999.0,70,-99.99,,,0.00,Acu-Link.com,2013-05-17 07:20:00,
2013-05-17 03:35:00,47.8,38.9,29.81,ESE,112,0.0,-999.0,71,-99.99,,,0.00,Acu-Link.com,2013-05-17 07:35:00,
2013-05-17 03:50:00,48.0,38.7,29.83,NNE,22,2.2,-999.0,70,-99.99,,,0.00,Acu-Link.com,2013-05-17 07:50:00,
2013-05-17 04:05:00,48.0,39.1,29.83,ESE,112,2.2,-999.0,71,-99.99,,,0.00,Acu-Link.com,2013-05-17 08:05:00,
2013-05-17 04:20:00,47.7,38.0,29.84,ENE,67,2.2,-999.0,69,-99.99,,,0.00,Acu-Link.com,2013-05-17 08:20:00,
2013-05-17 04:36:00,47.5,37.8,29.84,West,270,2.2,-999.0,69,-99.99,,,0.00,Acu-Link.com,2013-05-17 08:36:00,
2013-05-17 04:51:00,47.3,38.0,29.85,ENE,67,2.2,-999.0,70,-99.99,,,0.00,Acu-Link.com,2013-05-17 08:51:00,
2013-05-17 05:06:00,46.9,39.7,29.87,SSE,157,0.0,-999.0,76,-99.99,,,0.00,Acu-Link.com,2013-05-17 09:06:00,
2013-05-17 05:21:00,46.9,39.1,29.87,ESE,112,0.0,-999.0,74,-99.99,,,0.00,Acu-Link.com,2013-05-17 09:21:00,
2013-05-17 05:36:00,46.6,38.1,29.88,NE,45,1.1,-999.0,72,-99.99,,,0.00,Acu-Link.com,2013-05-17 09:36:00,
2013-05-17 05:51:00,46.0,39.5,29.89,NNE,22,0.0,-999.0,78,-99.99,,,0.00,Acu-Link.com,2013-05-17 09:51:00,
2013-05-17 06:06:00,45.1,39.0,29.90,ENE,67,1.7,-999.0,79,-99.99,,,0.00,Acu-Link.com,2013-05-17 10:06:00,
2013-05-17 06:22:00,45.1,39.0,29.91,ESE,112,0.0,-999.0,79,-99.99,,,0.00,Acu-Link.com,2013-05-17 10:22:00,
2013-05-17 06:37:00,45.3,38.9,29.92,ESE,112,0.0,-999.0,78,-99.99,,,0.00,Acu-Link.com,2013-05-17 10:37:00,
2013-05-17 06:52:00,46.2,38.7,29.93,West,270,0.0,-999.0,75,-99.99,,,0.00,Acu-Link.com,2013-05-17 10:52:00,
2013-05-17 07:07:00,46.6,40.4,29.94,SE,135,0.0,-999.0,79,-99.99,,,0.00,Acu-Link.com,2013-05-17 11:07:00,
2013-05-17 07:22:00,48.7,40.8,29.95,West,270,2.2,-999.0,74,-99.99,,,0.00,Acu-Link.com,2013-05-17 11:22:00,
2013-05-17 07:37:00,50.9,39.6,29.95,ESE,112,1.1,-999.0,65,-99.99,,,0.00,Acu-Link.com,2013-05-17 11:37:00,
2013-05-17 07:52:00,52.5,39.9,29.96,NE,45,2.7,-999.0,62,-99.99,,,0.00,Acu-Link.com,2013-05-17 11:52:00,
2013-05-17 08:07:00,53.4,39.0,29.96,ENE,67,3.7,-999.0,58,-99.99,,,0.00,Acu-Link.com,2013-05-17 12:07:00,
2013-05-17 08:22:00,54.5,39.1,29.96,NE,45,2.2,-999.0,56,-99.99,,,0.00,Acu-Link.com,2013-05-17 12:22:00,
2013-05-17 08:37:00,55.0,39.1,29.95,ESE,112,1.1,-999.0,55,-99.99,,,0.00,Acu-Link.com,2013-05-17 12:37:00,
2013-05-17 08:53:00,55.8,40.3,29.97,NE,45,3.2,-999.0,56,-99.99,,,0.00,Acu-Link.com,2013-05-17 12:53:00,
2013-05-17 09:08:00,56.1,42.0,29.97,ENE,67,2.7,-999.0,59,-99.99,,,0.00,Acu-Link.com,2013-05-17 13:08:00,
2013-05-17 09:23:00,56.3,41.3,29.97,ENE,67,3.7,-999.0,57,-99.99,,,0.00,Acu-Link.com,2013-05-17 13:23:00,
2013-05-17 09:38:00,57.4,41.8,29.97,NNE,22,2.7,-999.0,56,-99.99,,,0.00,Acu-Link.com,2013-05-17 13:38:00,
2013-05-17 09:53:00,58.6,42.0,29.97,West,270,4.2,-999.0,54,-99.99,,,0.00,Acu-Link.com,2013-05-17 13:53:00,
2013-05-17 10:08:00,61.2,42.9,29.97,ENE,67,3.7,-999.0,51,-99.99,,,0.00,Acu-Link.com,2013-05-17 14:08:00,
2013-05-17 10:23:00,61.3,42.5,29.97,SE,135,1.7,-999.0,50,-99.99,,,0.00,Acu-Link.com,2013-05-17 14:23:00,
2013-05-17 10:38:00,61.3,42.5,29.97,West,270,1.7,-999.0,50,-99.99,,,0.00,Acu-Link.com,2013-05-17 14:38:00,
2013-05-17 10:53:00,62.1,42.2,29.97,West,270,2.7,-999.0,48,-99.99,,,0.00,Acu-Link.com,2013-05-17 14:53:00,
2013-05-17 11:09:00,63.3,45.4,29.97,West,270,0.0,-999.0,52,-99.99,,,0.00,Acu-Link.com,2013-05-17 15:09:00,
2013-05-17 11:24:00,63.5,42.3,29.97,SE,135,2.2,-999.0,46,-99.99,,,0.00,Acu-Link.com,2013-05-17 15:24:00,
2013-05-17 11:39:00,64.4,43.2,29.97,West,270,3.2,-999.0,46,-99.99,,,0.00,Acu-Link.com,2013-05-17 15:39:00,
2013-05-17 11:54:00,65.5,43.0,29.97,NE,45,3.2,-999.0,44,-99.99,,,0.00,Acu-Link.com,2013-05-17 15:54:00,
2013-05-17 12:09:00,66.2,42.4,29.96,ESE,112,1.7,-999.0,42,-99.99,,,0.00,Acu-Link.com,2013-05-17 16:09:00,
2013-05-17 12:24:00,67.3,43.4,29.96,SE,135,3.7,-999.0,42,-99.99,,,0.00,Acu-Link.com,2013-05-17 16:24:00,
2013-05-17 12:39:00,69.4,43.4,29.95,SSE,157,2.2,-999.0,39,-99.99,,,0.00,Acu-Link.com,2013-05-17 16:39:00,
2013-05-17 12:54:00,70.5,44.3,29.94,West,270,7.8,-999.0,39,-99.99,,,0.00,Acu-Link.com,2013-05-17 16:54:00,
2013-05-17 13:09:00,70.2,42.0,29.93,NNE,22,2.7,-999.0,36,-99.99,,,0.00,Acu-Link.com,2013-05-17 17:09:00,
2013-05-17 13:25:00,72.5,48.1,29.93,ENE,67,3.2,-999.0,42,-99.99,,,0.00,Acu-Link.com,2013-05-17 17:25:00,
2013-05-17 13:40:00,72.1,41.4,29.92,ENE,67,3.2,-999.0,33,-99.99,,,0.00,Acu-Link.com,2013-05-17 17:40:00,
2013-05-17 13:55:00,72.3,42.3,29.92,West,270,2.2,-999.0,34,-99.99,,,0.00,Acu-Link.com,2013-05-17 17:55:00,
2013-05-17 14:10:00,72.5,41.7,29.92,SSE,157,0.0,-999.0,33,-99.99,,,0.00,Acu-Link.com,2013-05-17 18:10:00,
2013-05-17 14:25:00,72.3,43.1,29.91,SSE,157,2.7,-999.0,35,-99.99,,,0.00,Acu-Link.com,2013-05-17 18:25:00,
2013-05-17 14:40:00,73.9,43.8,29.91,SSE,157,4.7,-999.0,34,-99.99,,,0.00,Acu-Link.com,2013-05-17 18:40:00,
2013-05-17 14:55:00,73.4,42.5,29.90,SE,135,2.2,-999.0,33,-99.99,,,0.00,Acu-Link.com,2013-05-17 18:55:00,
2013-05-17 15:10:00,74.5,47.9,29.90,SE,135,1.1,-999.0,39,-99.99,,,0.00,Acu-Link.com,2013-05-17 19:10:00,
2013-05-17 15:25:00,74.7,47.4,29.90,ESE,112,3.7,-999.0,38,-99.99,,,0.00,Acu-Link.com,2013-05-17 19:25:00,
2013-05-17 15:41:00,75.6,47.5,29.89,ESE,112,4.7,-999.0,37,-99.99,,,0.00,Acu-Link.com,2013-05-17 19:41:00,
2013-05-17 15:56:00,75.2,47.1,29.90,West,270,4.2,-999.0,37,-99.99,,,0.00,Acu-Link.com,2013-05-17 19:56:00,
2013-05-17 16:11:00,75.9,47.0,29.89,West,270,3.2,-999.0,36,-99.99,,,0.00,Acu-Link.com,2013-05-17 20:11:00,
2013-05-17 16:26:00,75.6,47.5,29.89,SSE,157,3.2,-999.0,37,-99.99,,,0.00,Acu-Link.com,2013-05-17 20:26:00,
2013-05-17 16:41:00,75.2,45.7,29.89,East,90,2.7,-999.0,35,-99.99,,,0.00,Acu-Link.com,2013-05-17 20:41:00,
2013-05-17 16:56:00,75.6,45.2,29.88,SSE,157,2.2,-999.0,34,-99.99,,,0.00,Acu-Link.com,2013-05-17 20:56:00,
2013-05-17 17:11:00,75.7,44.5,29.88,East,90,2.7,-999.0,33,-99.99,,,0.00,Acu-Link.com,2013-05-17 21:11:00,
2013-05-17 17:26:00,74.8,44.5,29.89,SSE,157,2.2,-999.0,34,-99.99,,,0.00,Acu-Link.com,2013-05-17 21:26:00,
2013-05-17 17:41:00,75.9,46.3,29.89,SE,135,2.2,-999.0,35,-99.99,,,0.00,Acu-Link.com,2013-05-17 21:41:00,
2013-05-17 17:57:00,75.2,44.9,29.88,NE,45,3.7,-999.0,34,-99.99,,,0.00,Acu-Link.com,2013-05-17 21:57:00,
2013-05-17 18:12:00,78.3,46.0,29.89,ENE,67,2.7,-999.0,32,-99.99,,,0.00,Acu-Link.com,2013-05-17 22:12:00,
2013-05-17 18:27:00,78.1,45.8,29.88,SE,135,2.2,-999.0,32,-99.99,,,0.00,Acu-Link.com,2013-05-17 22:27:00,
2013-05-17 18:42:00,78.8,47.2,29.89,ESE,112,1.1,-999.0,33,-99.99,,,0.00,Acu-Link.com,2013-05-17 22:42:00,
2013-05-17 18:57:00,78.8,44.7,29.88,ESE,112,1.7,-999.0,30,-99.99,,,0.00,Acu-Link.com,2013-05-17 22:57:00,
2013-05-17 19:12:00,80.2,46.8,29.89,ESE,112,0.0,-999.0,31,-99.99,,,0.00,Acu-Link.com,2013-05-17 23:12:00,
2013-05-17 19:27:00,76.6,48.4,29.90,East,90,0.0,-999.0,37,-99.99,,,0.00,Acu-Link.com,2013-05-17 23:27:00,
2013-05-17 19:42:00,72.1,51.3,29.90,NE,45,2.2,-999.0,48,-99.99,,,0.00,Acu-Link.com,2013-05-17 23:42:00,
2013-05-17 19:57:00,67.8,49.0,29.92,NNE,22,0.0,-999.0,51,-99.99,,,0.00,Acu-Link.com,2013-05-17 23:57:00,
2013-05-17 20:13:00,65.1,47.0,29.93,East,90,0.0,-999.0,52,-99.99,,,0.00,Acu-Link.com,2013-05-18 00:13:00,
2013-05-17 20:28:00,62.4,46.5,29.94,NE,45,0.0,-999.0,56,-99.99,,,0.00,Acu-Link.com,2013-05-18 00:28:00,
2013-05-17 20:43:00,60.8,45.5,29.95,NNE,22,1.1,-999.0,57,-99.99,,,0.00,Acu-Link.com,2013-05-18 00:43:00,
2013-05-17 20:58:00,59.2,46.2,29.96,ESE,112,1.7,-999.0,62,-99.99,,,0.00,Acu-Link.com,2013-05-18 00:58:00,
2013-05-17 21:13:00,58.3,45.8,29.98,East,90,0.0,-999.0,63,-99.99,,,0.00,Acu-Link.com,2013-05-18 01:13:00,
2013-05-17 21:28:00,57.7,46.4,29.99,ENE,67,0.0,-999.0,66,-99.99,,,0.00,Acu-Link.com,2013-05-18 01:28:00,
2013-05-17 21:43:00,57.0,45.4,30.00,ESE,112,1.7,-999.0,65,-99.99,,,0.00,Acu-Link.com,2013-05-18 01:43:00,
2013-05-17 21:58:00,57.0,45.8,30.01,SSE,157,0.0,-999.0,66,-99.99,,,0.00,Acu-Link.com,2013-05-18 01:58:00,
2013-05-17 22:13:00,56.1,45.7,30.01,NE,45,0.0,-999.0,68,-99.99,,,0.00,Acu-Link.com,2013-05-18 02:13:00,
2013-05-17 22:29:00,55.6,44.4,30.01,SE,135,0.0,-999.0,66,-99.99,,,0.00,Acu-Link.com,2013-05-18 02:29:00,
2013-05-17 22:44:00,55.4,45.0,30.03,ESE,112,0.0,-999.0,68,-99.99,,,0.00,Acu-Link.com,2013-05-18 02:44:00,
2013-05-17 22:59:00,55.2,44.8,30.02,East,90,0.0,-999.0,68,-99.99,,,0.00,Acu-Link.com,2013-05-18 02:59:00,
2013-05-17 23:14:00,54.7,44.3,30.02,East,90,0.0,-999.0,68,-99.99,,,0.00,Acu-Link.com,2013-05-18 03:14:00,
2013-05-17 23:29:00,54.3,44.0,30.02,NNE,22,0.0,-999.0,68,-99.99,,,0.00,Acu-Link.com,2013-05-18 03:29:00,
2013-05-17 23:44:00,54.5,44.5,30.03,SE,135,0.0,-999.0,69,-99.99,,,0.00,Acu-Link.com,2013-05-18 03:44:00,
2013-05-17 23:59:00,54.3,44.7,30.04,NE,45,0.0,-999.0,70,-99.99,,,0.00,Acu-Link.com,2013-05-18 03:59:00,